Time;durP1;ratioP1;P1;durP2;ratioP2;P2;SDS_P1;SDS_P2;PMS_P1;PMS_P2;Temp;Humidity;BMP_temperature;BMP_pressure;BME280_temperature;BME280_humidity;BME280_pressure;Samples;Min_cycle;Max_cycle;Signal;HPM_P1;HPM_P2
2023/04/24 00:02:10;;;;;;;3.03;2.10;;;13.30;99.90;;;;;;10405047;28;20682;-81
2023/04/24 00:07:14;;;;;;;2.20;2.10;;;13.30;99.90;;;;;;10406619;28;20253;-81
2023/04/24 00:12:17;;;;;;;2.50;2.33;;;13.30;99.90;;;;;;10384998;28;20559;-81
2023/04/24 00:17:20;;;;;;;2.10;2.00;;;13.30;99.90;;;;;;10406213;28;20738;-81
2023/04/24 00:22:22;;;;;;;2.60;2.50;;;13.30;99.90;;;;;;10400137;28;20706;-80
2023/04/24 00:27:25;;;;;;;2.20;2.10;;;13.40;99.90;;;;;;10386887;28;20227;-81
2023/04/24 00:32:27;;;;;;;2.23;2.03;;;13.40;99.90;;;;;;10402639;28;20603;-81
2023/04/24 00:37:31;;;;;;;2.47;2.30;;;13.40;99.90;;;;;;10396124;28;20585;-81
2023/04/24 00:42:34;;;;;;;2.50;2.20;;;13.40;99.90;;;;;;10423673;28;20733;-81
2023/04/24 00:47:37;;;;;;;2.50;2.00;;;13.50;99.90;;;;;;10379398;28;20541;-80
2023/04/24 00:52:40;;;;;;;2.20;2.10;;;13.50;99.90;;;;;;10408889;28;20234;-79
2023/04/24 00:57:44;;;;;;;2.63;2.47;;;13.60;99.90;;;;;;10385953;28;20238;-80
2023/04/24 01:02:47;;;;;;;2.33;2.13;;;13.60;99.90;;;;;;10398169;28;20231;-81
2023/04/24 01:07:49;;;;;;;2.20;2.10;;;13.60;99.90;;;;;;10377993;28;20222;-80
2023/04/24 01:12:53;;;;;;;2.60;2.40;;;13.60;99.90;;;;;;10386225;28;20203;-80
2023/04/24 01:17:55;;;;;;;2.47;2.30;;;13.70;99.90;;;;;;10394403;28;20238;-78
2023/04/24 01:23:00;;;;;;;3.57;2.20;;;13.70;99.90;;;;;;10391000;28;20675;-79
2023/04/24 01:28:02;;;;;;;2.30;2.10;;;13.60;99.90;;;;;;10388679;28;20714;-80
2023/04/24 01:33:05;;;;;;;2.00;1.90;;;13.60;99.90;;;;;;10372238;28;20603;-78
2023/04/24 01:38:08;;;;;;;3.17;2.60;;;13.70;99.90;;;;;;10358109;28;20239;-79
2023/04/24 01:43:12;;;;;;;2.73;2.53;;;13.60;99.90;;;;;;10391342;28;20195;-81
2023/04/24 01:48:14;;;;;;;2.30;2.20;;;13.50;99.90;;;;;;10416637;28;20233;-80
2023/04/24 01:53:18;;;;;;;1.80;1.80;;;13.40;99.90;;;;;;10380396;28;20237;-81
2023/04/24 01:58:20;;;;;;;2.73;2.20;;;13.40;99.90;;;;;;10389803;28;20305;-81
2023/04/24 02:03:22;;;;;;;3.10;2.53;;;13.30;99.90;;;;;;10385488;28;20210;-79
2023/04/24 02:08:26;;;;;;;2.47;2.27;;;13.30;99.90;;;;;;10405472;28;20215;-81
2023/04/24 02:13:28;;;;;;;2.63;2.53;;;13.30;99.90;;;;;;10395318;28;20670;-81
2023/04/24 02:18:30;;;;;;;2.00;1.90;;;13.30;99.90;;;;;;10399420;28;20253;-81
2023/04/24 02:23:34;;;;;;;2.50;2.00;;;13.20;99.90;;;;;;10406766;28;20199;-81
2023/04/24 02:28:36;;;;;;;2.40;2.17;;;13.20;99.90;;;;;;10391351;28;20215;-81
2023/04/24 02:33:38;;;;;;;2.13;2.00;;;13.20;99.90;;;;;;10401896;28;20231;-80
2023/04/24 02:38:41;;;;;;;2.37;2.03;;;13.20;99.90;;;;;;10381981;28;20270;-82
2023/04/24 02:43:43;;;;;;;2.20;2.10;;;13.20;99.90;;;;;;10386773;28;20621;-81
2023/04/24 02:48:46;;;;;;;2.50;2.30;;;13.10;99.90;;;;;;10371923;28;20650;-79
2023/04/24 02:53:49;;;;;;;2.50;2.40;;;13.20;99.90;;;;;;10386315;28;20697;-82
2023/04/24 02:58:51;;;;;;;2.30;2.20;;;13.30;99.90;;;;;;10409700;28;20219;-82
2023/04/24 03:03:53;;;;;;;2.77;2.67;;;13.30;99.90;;;;;;10374223;28;20218;-79
2023/04/24 03:08:56;;;;;;;2.70;2.60;;;13.20;99.90;;;;;;10373355;28;20666;-79
2023/04/24 03:13:58;;;;;;;2.30;2.20;;;13.20;99.90;;;;;;10397917;28;20202;-83
2023/04/24 03:19:01;;;;;;;2.50;2.40;;;13.20;99.90;;;;;;10400260;28;20233;-82
2023/04/24 03:24:08;;;;;;;2.73;2.53;;;13.00;99.90;;;;;;10376690;28;20610;-82
2023/04/24 03:29:10;;;;;;;2.33;2.23;;;12.80;99.90;;;;;;10397223;28;20221;-81
2023/04/24 03:34:14;;;;;;;2.53;2.40;;;12.80;99.90;;;;;;10430863;28;20207;-83
2023/04/24 03:39:17;;;;;;;2.13;2.03;;;12.70;99.90;;;;;;10358319;28;20229;-82
2023/04/24 03:44:26;;;;;;;2.40;2.20;;;12.80;99.90;;;;;;10398338;28;20230;-82
2023/04/24 03:49:28;;;;;;;3.00;2.80;;;12.80;99.90;;;;;;10380775;28;20222;-82
2023/04/24 03:54:32;;;;;;;2.60;2.50;;;12.80;99.90;;;;;;10400771;28;20191;-82
2023/04/24 03:59:35;;;;;;;2.23;2.13;;;12.80;99.90;;;;;;10375543;28;20249;-82
2023/04/24 04:04:56;;;;;;;2.70;2.43;;;12.90;99.90;;;;;;10409168;28;20194;-80
2023/04/24 04:09:59;;;;;;;4.50;2.50;;;12.80;99.90;;;;;;10408303;28;20224;-82
2023/04/24 04:15:01;;;;;;;2.30;2.13;;;12.60;99.90;;;;;;10374511;28;20191;-82
2023/04/24 04:20:07;;;;;;;2.70;2.60;;;12.70;99.90;;;;;;10397347;28;20229;-81
2023/04/24 04:25:13;;;;;;;2.30;2.20;;;12.70;99.90;;;;;;10380519;28;20247;-82
2023/04/24 04:30:15;;;;;;;3.23;2.30;;;12.70;99.90;;;;;;10393353;28;20243;-82
2023/04/24 04:35:27;;;;;;;3.37;3.17;;;12.60;99.90;;;;;;10370950;28;20686;-82
2023/04/24 04:40:31;;;;;;;3.83;3.67;;;12.70;99.90;;;;;;10396132;28;20218;-81
2023/04/24 04:45:40;;;;;;;4.00;3.80;;;12.60;99.90;;;;;;10395575;28;20581;-80
2023/04/24 04:51:00;;;;;;;4.33;4.13;;;12.40;99.90;;;;;;10393184;28;20218;-81
2023/04/24 04:56:05;;;;;;;4.10;3.90;;;12.20;99.90;;;;;;10367600;28;20204;-81
2023/04/24 05:01:13;;;;;;;5.20;4.70;;;12.10;99.90;;;;;;10361898;28;20215;-81
2023/04/24 05:06:18;;;;;;;5.10;4.90;;;12.00;99.90;;;;;;10376828;28;20211;-82
2023/04/24 05:11:23;;;;;;;5.30;5.00;;;11.90;99.90;;;;;;10396222;28;20284;-82
2023/04/24 05:16:25;;;;;;;4.00;3.80;;;11.90;99.90;;;;;;10347472;28;20214;-82
2023/04/24 05:21:30;;;;;;;4.90;4.70;;;11.90;99.90;;;;;;10350870;28;20699;-82
2023/04/24 05:26:35;;;;;;;4.90;4.70;;;11.90;99.90;;;;;;10377499;28;20227;-82
2023/04/24 05:31:38;;;;;;;3.97;3.87;;;11.90;99.90;;;;;;10354390;28;20214;-82
2023/04/24 05:36:40;;;;;;;2.70;2.57;;;12.00;99.90;;;;;;10399051;28;20263;-79
2023/04/24 05:41:44;;;;;;;4.10;3.80;;;12.00;99.90;;;;;;10378976;28;20596;-83
2023/04/24 05:46:46;;;;;;;4.00;3.80;;;12.00;99.90;;;;;;10384244;28;20269;-81
2023/04/24 05:51:48;;;;;;;3.83;3.63;;;12.10;99.90;;;;;;10373280;28;20210;-80
2023/04/24 05:56:55;;;;;;;3.77;3.60;;;12.20;99.90;;;;;;10373747;28;20182;-82
2023/04/24 06:02:08;;;;;;;3.70;3.50;;;12.30;99.90;;;;;;10394047;28;20285;-82
2023/04/24 06:07:11;;;;;;;3.70;3.50;;;12.40;99.90;;;;;;10381560;28;20223;-83
2023/04/24 06:12:16;;;;;;;3.50;3.40;;;12.40;99.90;;;;;;10374318;28;20202;-83
2023/04/24 06:17:36;;;;;;;3.83;3.63;;;12.50;99.90;;;;;;10378760;28;20280;-81
2023/04/24 06:22:39;;;;;;;3.70;3.50;;;12.60;99.90;;;;;;10374561;28;20199;-83
2023/04/24 06:27:43;;;;;;;3.80;3.60;;;12.50;99.90;;;;;;10377065;28;20657;-83
2023/04/24 06:32:45;;;;;;;3.77;3.57;;;12.50;99.90;;;;;;10400028;28;20199;-81
2023/04/24 06:37:47;;;;;;;4.60;4.30;;;12.50;99.90;;;;;;10411568;28;20207;-81
2023/04/24 06:42:50;;;;;;;3.73;3.50;;;12.50;99.90;;;;;;10394544;28;20201;-81
2023/04/24 06:47:52;;;;;;;3.67;3.47;;;12.50;99.90;;;;;;10380834;28;20580;-79
2023/04/24 06:52:54;;;;;;;3.93;3.73;;;12.50;99.90;;;;;;10397650;28;20597;-79
2023/04/24 06:57:58;;;;;;;4.17;3.73;;;12.60;99.90;;;;;;10403483;28;20311;-81
2023/04/24 07:03:00;;;;;;;4.03;3.80;;;12.70;99.90;;;;;;10378815;28;20283;-82
2023/04/24 07:08:02;;;;;;;5.80;4.00;;;13.00;99.90;;;;;;10361950;28;20222;-81
2023/04/24 07:13:06;;;;;;;3.40;3.20;;;13.20;99.90;;;;;;10392438;28;20233;-83
2023/04/24 07:18:08;;;;;;;3.43;3.17;;;13.50;99.90;;;;;;10410625;28;20246;-80
2023/04/24 07:23:11;;;;;;;7.90;5.90;;;13.70;99.90;;;;;;10408605;28;20214;-81
2023/04/24 07:28:14;;;;;;;3.17;2.97;;;13.70;99.90;;;;;;10368668;28;20262;-80
2023/04/24 07:33:16;;;;;;;3.03;2.87;;;13.70;99.90;;;;;;10392267;28;20632;-81
2023/04/24 07:38:20;;;;;;;3.40;3.13;;;13.80;99.90;;;;;;10411357;28;20239;-82
2023/04/24 07:43:24;;;;;;;3.53;2.67;;;14.00;99.60;;;;;;10411173;28;20270;-81
2023/04/24 07:48:26;;;;;;;4.73;4.33;;;14.30;99.90;;;;;;10343358;28;20219;-83
2023/04/24 07:53:28;;;;;;;3.30;2.90;;;14.60;97.30;;;;;;10383169;28;20219;-83
2023/04/24 07:58:32;;;;;;;2.60;2.40;;;14.90;99.10;;;;;;10365690;28;20222;-82
2023/04/24 08:03:34;;;;;;;2.40;2.30;;;15.40;97.90;;;;;;10381683;28;20649;-83
2023/04/24 08:08:36;;;;;;;1.90;1.80;;;15.70;97.70;;;;;;10397678;28;20227;-83
2023/04/24 08:13:39;;;;;;;2.27;2.17;;;15.70;96.00;;;;;;10388046;28;20198;-83
2023/04/24 08:18:41;;;;;;;2.20;2.10;;;15.60;95.00;;;;;;10382713;28;20313;-82
2023/04/24 08:23:44;;;;;;;2.27;2.17;;;15.50;95.10;;;;;;10416169;28;20233;-82
2023/04/24 08:28:47;;;;;;;2.60;2.40;;;15.70;95.60;;;;;;10387233;28;20210;-83
2023/04/24 08:33:49;;;;;;;1.87;1.77;;;15.90;93.90;;;;;;10384657;28;20195;-82
2023/04/24 08:38:51;;;;;;;2.07;1.97;;;16.00;94.20;;;;;;10385420;28;20629;-80
2023/04/24 08:43:57;;;;;;;2.63;2.43;;;16.00;92.90;;;;;;10415813;28;20793;-81
2023/04/24 08:49:00;;;;;;;1.93;1.83;;;15.80;93.10;;;;;;10382942;28;20362;-82
2023/04/24 08:54:03;;;;;;;3.07;2.87;;;15.60;92.20;;;;;;10385979;28;20191;-83
2023/04/24 08:59:07;;;;;;;2.43;2.33;;;15.30;93.30;;;;;;10426079;28;20371;-84
2023/04/24 09:04:11;;;;;;;2.53;2.30;;;15.10;94.80;;;;;;10388987;28;20211;-84
2023/04/24 09:09:14;;;;;;;4.80;2.53;;;15.30;94.90;;;;;;10366598;28;20221;-83
2023/04/24 09:14:18;;;;;;;6.13;2.50;;;15.40;94.50;;;;;;10415364;28;20546;-84
2023/04/24 09:19:21;;;;;;;2.80;2.60;;;15.20;94.90;;;;;;10388747;28;20215;-81
2023/04/24 09:24:24;;;;;;;3.67;2.60;;;15.00;94.10;;;;;;10394555;28;20200;-83
2023/04/24 09:29:27;;;;;;;2.70;2.50;;;14.80;96.10;;;;;;10348971;28;20231;-81
2023/04/24 09:34:29;;;;;;;2.20;2.10;;;14.70;96.30;;;;;;10407251;28;20207;-83
2023/04/24 09:39:31;;;;;;;2.50;2.40;;;14.60;97.00;;;;;;10419047;28;20728;-81
2023/04/24 09:44:35;;;;;;;4.40;2.90;;;14.50;96.80;;;;;;10348606;28;20227;-81
2023/04/24 09:49:39;;;;;;;2.33;2.23;;;14.50;97.60;;;;;;10429511;28;20224;-82
2023/04/24 09:54:41;;;;;;;2.60;2.50;;;14.70;96.80;;;;;;10368893;28;20199;-82
2023/04/24 09:59:47;;;;;;;2.70;2.50;;;14.90;96.00;;;;;;10383414;28;20714;-81
2023/04/24 10:04:56;;;;;;;7.93;3.50;;;14.90;95.30;;;;;;10380039;28;20192;-82
2023/04/24 10:09:59;;;;;;;2.13;2.03;;;15.00;94.70;;;;;;10411410;28;20233;-82
2023/04/24 10:15:05;;;;;;;1.77;1.67;;;15.20;94.00;;;;;;10365756;28;20253;-80
2023/04/24 10:20:08;;;;;;;2.10;1.90;;;15.30;92.10;;;;;;10398267;28;20309;-82
2023/04/24 10:25:11;;;;;;;2.50;2.30;;;15.40;89.60;;;;;;10357849;28;20290;-81
2023/04/24 10:30:16;;;;;;;1.90;1.80;;;15.10;89.30;;;;;;10397734;28;20210;-81
2023/04/24 10:35:22;;;;;;;2.90;1.90;;;14.90;86.60;;;;;;10343176;28;20202;-81
2023/04/24 10:40:30;;;;;;;3.67;1.80;;;15.10;88.00;;;;;;10399740;28;20281;-82
2023/04/24 10:45:34;;;;;;;2.10;2.00;;;15.30;87.10;;;;;;10418083;28;20210;-81
2023/04/24 10:50:47;;;;;;;2.20;1.93;;;15.20;87.30;;;;;;10399538;28;20242;-81
2023/04/24 10:55:50;;;;;;;2.30;1.90;;;15.10;90.00;;;;;;10379860;28;20198;-82
2023/04/24 11:01:02;;;;;;;1.93;1.83;;;15.00;91.10;;;;;;10384032;28;20231;-81
2023/04/24 11:06:06;;;;;;;1.93;1.83;;;14.90;90.90;;;;;;10413857;28;20298;-80
2023/04/24 11:11:12;;;;;;;2.10;1.90;;;15.10;90.30;;;;;;10357968;28;20247;-82
2023/04/24 11:16:21;;;;;;;2.00;1.90;;;15.00;90.40;;;;;;10357163;28;20191;-82
2023/04/24 11:21:23;;;;;;;2.10;2.00;;;14.90;91.60;;;;;;10398595;28;20329;-80
2023/04/24 11:26:32;;;;;;;3.33;2.10;;;14.80;89.60;;;;;;10383797;28;20210;-80
2023/04/24 11:31:40;;;;;;;2.20;2.00;;;14.90;90.20;;;;;;10397299;28;20582;-80
2023/04/24 11:36:44;;;;;;;2.97;1.90;;;15.10;91.20;;;;;;10368824;28;20199;-82
2023/04/24 11:41:47;;;;;;;2.20;2.03;;;15.60;90.90;;;;;;10405524;28;20301;-82
2023/04/24 11:46:51;;;;;;;1.83;1.73;;;15.90;85.30;;;;;;10375017;28;20222;-82
2023/04/24 11:51:56;;;;;;;1.80;1.70;;;15.90;87.50;;;;;;10400939;28;20227;-83
2023/04/24 11:56:58;;;;;;;1.90;1.80;;;15.70;85.70;;;;;;10365991;28;20686;-82
2023/04/24 12:02:02;;;;;;;2.03;1.93;;;15.50;87.10;;;;;;10422055;28;20606;-83
2023/04/24 12:07:04;;;;;;;2.13;2.03;;;15.30;91.10;;;;;;10382901;28;20632;-82
2023/04/24 12:12:07;;;;;;;2.20;2.10;;;15.50;90.20;;;;;;10379193;28;20282;-82
2023/04/24 12:17:11;;;;;;;2.03;1.93;;;15.80;88.90;;;;;;10400175;28;20685;-83
2023/04/24 12:22:13;;;;;;;2.00;1.90;;;15.90;87.30;;;;;;10405953;28;20192;-84
2023/04/24 12:27:20;;;;;;;3.67;3.37;;;15.80;87.50;;;;;;10389216;28;20242;-83
2023/04/24 12:32:24;;;;;;;2.20;2.10;;;15.60;86.80;;;;;;10400566;28;20504;-83
2023/04/24 12:37:33;;;;;;;2.43;2.03;;;15.40;88.50;;;;;;10397284;28;20211;-83
2023/04/24 12:42:36;;;;;;;2.20;2.10;;;15.40;84.20;;;;;;10429807;28;20223;-82
2023/04/24 12:47:40;;;;;;;2.20;2.10;;;15.30;88.10;;;;;;10418261;28;20702;-83
2023/04/24 12:52:43;;;;;;;2.47;1.80;;;15.40;87.00;;;;;;10403418;28;20262;-81
2023/04/24 12:57:47;;;;;;;1.90;1.80;;;15.50;87.00;;;;;;10391947;28;20207;-83
2023/04/24 13:02:51;;;;;;;2.07;1.97;;;15.40;86.80;;;;;;10398195;28;20192;-83
2023/04/24 13:07:53;;;;;;;1.90;1.60;;;15.30;87.70;;;;;;10423681;28;20233;-81
2023/04/24 13:12:55;;;;;;;4.10;3.80;;;15.10;88.90;;;;;;10398299;28;20202;-82
2023/04/24 13:17:58;;;;;;;2.00;1.90;;;14.90;92.70;;;;;;10386668;28;20254;-81
2023/04/24 13:23:00;;;;;;;1.93;1.83;;;14.80;93.20;;;;;;10432645;28;20201;-81
2023/04/24 13:28:03;;;;;;;1.83;1.73;;;14.90;94.30;;;;;;10383069;28;20501;-83
2023/04/24 13:33:06;;;;;;;2.60;1.93;;;14.90;94.80;;;;;;10394362;28;20210;-83
2023/04/24 13:38:08;;;;;;;1.80;1.70;;;15.10;93.00;;;;;;10350666;28;20215;-82
2023/04/24 13:43:10;;;;;;;2.47;2.20;;;15.10;92.60;;;;;;10416976;28;20209;-83
2023/04/24 13:48:15;;;;;;;2.00;1.90;;;15.10;93.70;;;;;;10400780;28;20589;-82
2023/04/24 13:53:17;;;;;;;2.13;2.00;;;15.00;94.50;;;;;;10421150;28;20198;-81
2023/04/24 13:58:19;;;;;;;2.30;2.10;;;14.80;93.40;;;;;;10385715;28;20223;-81
2023/04/24 14:03:22;;;;;;;2.50;2.33;;;14.50;95.70;;;;;;10380401;28;20203;-80
2023/04/24 14:08:25;;;;;;;1.97;1.80;;;14.40;96.10;;;;;;10375048;28;20244;-80
2023/04/24 14:13:27;;;;;;;2.20;2.10;;;14.30;96.90;;;;;;10414366;28;20495;-80
2023/04/24 14:18:30;;;;;;;2.00;1.90;;;14.20;97.20;;;;;;10392768;28;20246;-80
2023/04/24 14:23:33;;;;;;;2.00;1.90;;;14.20;97.30;;;;;;10378003;28;20195;-81
2023/04/24 14:28:35;;;;;;;1.90;1.80;;;14.20;97.30;;;;;;10357693;28;20310;-80
2023/04/24 14:33:39;;;;;;;2.20;2.10;;;14.40;96.40;;;;;;10394238;28;20503;-82
2023/04/24 14:38:41;;;;;;;1.70;1.60;;;14.50;96.30;;;;;;10379110;28;20226;-81
2023/04/24 14:43:43;;;;;;;1.20;1.20;;;14.60;94.60;;;;;;10409696;28;20682;-82
2023/04/24 14:48:46;;;;;;;1.90;1.80;;;14.70;93.40;;;;;;10389208;28;20225;-83
2023/04/24 14:53:48;;;;;;;2.00;1.90;;;14.50;93.10;;;;;;10410766;28;20190;-82
2023/04/24 14:58:51;;;;;;;2.43;2.10;;;14.30;94.80;;;;;;10411203;28;20246;-80
2023/04/24 15:03:54;;;;;;;2.43;2.07;;;14.40;94.00;;;;;;10364883;28;20190;-81
2023/04/24 15:08:56;;;;;;;3.13;2.40;;;14.50;93.70;;;;;;10400351;28;20233;-80
2023/04/24 15:13:58;;;;;;;2.73;2.53;;;14.50;93.80;;;;;;10391965;28;20615;-81
2023/04/24 15:19:01;;;;;;;3.07;2.80;;;14.30;93.30;;;;;;10373065;28;20246;-82
2023/04/24 15:24:05;;;;;;;3.53;2.97;;;14.30;93.10;;;;;;10419441;28;20523;-83
2023/04/24 15:29:07;;;;;;;3.00;2.70;;;14.30;93.50;;;;;;10416177;28;20408;-83
2023/04/24 15:34:10;;;;;;;2.77;2.57;;;14.30;93.50;;;;;;10396560;28;20187;-81
2023/04/24 15:39:12;;;;;;;4.83;2.67;;;14.30;93.10;;;;;;10402680;28;20230;-82
2023/04/24 15:44:14;;;;;;;3.40;3.10;;;14.30;93.80;;;;;;10367133;28;20199;-81
2023/04/24 15:49:18;;;;;;;4.60;3.53;;;14.20;97.30;;;;;;10378375;28;20256;-81
2023/04/24 15:54:20;;;;;;;3.80;3.50;;;13.90;99.50;;;;;;10400238;28;20195;-81
2023/04/24 15:59:22;;;;;;;3.90;3.67;;;13.50;99.70;;;;;;10409170;28;20219;-81
2023/04/24 16:04:29;;;;;;;4.23;3.77;;;13.10;99.90;;;;;;10381977;28;20666;-81
2023/04/24 16:09:31;;;;;;;12.60;11.30;;;12.80;99.90;;;;;;10411936;28;20250;-81
2023/04/24 16:14:33;;;;;;;4.63;4.33;;;12.60;99.90;;;;;;10372278;28;20301;-81
2023/04/24 16:19:37;;;;;;;4.80;4.20;;;12.60;99.90;;;;;;10413132;28;20238;-81
2023/04/24 16:24:40;;;;;;;4.63;4.30;;;12.50;99.90;;;;;;10414999;28;20192;-82
2023/04/24 16:29:42;;;;;;;3.73;3.53;;;12.50;99.90;;;;;;10398540;28;20288;-81
2023/04/24 16:34:45;;;;;;;4.90;4.60;;;12.50;99.90;;;;;;10404339;28;20654;-81
2023/04/24 16:39:47;;;;;;;4.30;4.00;;;12.50;99.90;;;;;;10394661;28;20306;-81
2023/04/24 16:44:50;;;;;;;4.80;4.30;;;12.50;99.90;;;;;;10399390;28;20388;-81
2023/04/24 16:49:53;;;;;;;4.83;4.53;;;12.60;99.90;;;;;;10399079;28;20252;-81
2023/04/24 16:54:55;;;;;;;4.70;4.30;;;12.80;99.90;;;;;;10407523;28;20214;-81
2023/04/24 16:59:57;;;;;;;4.13;3.83;;;12.90;99.90;;;;;;10423872;28;20199;-81
2023/04/24 17:05:00;;;;;;;4.00;3.80;;;13.10;99.90;;;;;;10414376;28;20202;-80
2023/04/24 17:10:03;;;;;;;3.47;3.27;;;13.20;99.90;;;;;;10372719;28;20212;-81
2023/04/24 17:15:07;;;;;;;3.30;3.10;;;13.40;99.90;;;;;;10376501;28;20557;-81
2023/04/24 17:20:11;;;;;;;3.10;2.77;;;13.50;99.90;;;;;;10395563;28;20269;-81
2023/04/24 17:25:13;;;;;;;2.50;2.40;;;13.60;99.90;;;;;;10390332;28;20199;-81
2023/04/24 17:30:16;;;;;;;2.87;2.67;;;13.60;99.90;;;;;;10341400;28;20227;-81
2023/04/24 17:35:19;;;;;;;3.80;2.83;;;13.50;99.90;;;;;;10360395;28;20291;-81
2023/04/24 17:40:22;;;;;;;8.23;3.00;;;13.50;99.90;;;;;;10404500;28;20215;-81
2023/04/24 17:45:24;;;;;;;2.23;2.13;;;13.50;99.90;;;;;;10360889;28;20747;-81
2023/04/24 17:50:29;;;;;;;3.00;2.80;;;13.40;99.50;;;;;;10386387;28;20722;-81
2023/04/24 17:55:33;;;;;;;2.73;2.53;;;13.40;99.20;;;;;;10374176;28;20194;-81
2023/04/24 18:00:36;;;;;;;2.60;2.40;;;13.30;98.70;;;;;;10377859;28;20640;-81
2023/04/24 18:05:39;;;;;;;2.43;2.23;;;13.40;99.00;;;;;;10373048;28;20330;-81
2023/04/24 18:10:42;;;;;;;2.43;2.33;;;13.40;99.40;;;;;;10389145;28;20253;-82
2023/04/24 18:15:44;;;;;;;3.00;2.80;;;13.40;99.90;;;;;;10394354;28;20594;-82
2023/04/24 18:20:58;;;;;;;2.70;2.50;;;13.40;99.90;;;;;;10380095;28;20215;-82
2023/04/24 18:26:10;;;;;;;3.50;3.20;;;13.40;99.90;;;;;;10372095;28;20199;-82
2023/04/24 18:31:18;;;;;;;2.77;2.60;;;13.40;99.50;;;;;;10376600;28;20259;-82
2023/04/24 18:36:36;;;;;;;3.67;3.47;;;13.40;99.90;;;;;;10397878;28;20203;-81
2023/04/24 18:41:38;;;;;;;2.40;2.20;;;13.40;99.70;;;;;;10424240;28;20213;-81
2023/04/24 18:46:45;;;;;;;3.20;2.33;;;13.30;99.90;;;;;;10434737;28;20210;-80
2023/04/24 18:51:54;;;;;;;4.57;4.27;;;13.30;99.90;;;;;;10412413;28;20218;-81
2023/04/24 18:57:18;;;;;;;3.63;3.43;;;13.20;97.50;;;;;;10399431;28;20295;-81
2023/04/24 19:02:29;;;;;;;11.20;8.10;;;13.10;98.40;;;;;;10361604;28;20206;-81
2023/04/24 19:07:52;;;;;;;21.07;11.20;;;12.80;98.80;;;;;;10355261;28;20226;-80
2023/04/24 19:13:03;;;;;;;4.60;4.20;;;12.60;98.40;;;;;;10404090;28;20209;-81
2023/04/24 19:18:38;;;;;;;14.33;7.70;;;12.40;98.40;;;;;;10409181;28;20254;-82
2023/04/24 19:23:58;;;;;;;4.10;3.73;;;12.10;98.30;;;;;;10366252;28;20267;-81
2023/04/24 19:29:04;;;;;;;5.43;4.93;;;11.90;98.90;;;;;;10380813;28;20219;-81
2023/04/24 19:34:08;;;;;;;5.20;3.50;;;11.90;98.80;;;;;;10329324;28;20232;-81
2023/04/24 19:39:16;;;;;;;4.30;4.00;;;11.80;98.60;;;;;;10375606;28;20289;-80
2023/04/24 19:44:19;;;;;;;4.43;3.23;;;11.70;98.80;;;;;;10397880;28;20195;-81
2023/04/24 19:49:23;;;;;;;4.57;4.27;;;11.50;98.80;;;;;;10347820;28;20281;-81
2023/04/24 19:54:27;;;;;;;3.50;3.20;;;11.30;99.40;;;;;;10339825;28;20521;-81
2023/04/24 19:59:34;;;;;;;4.17;3.90;;;11.20;98.70;;;;;;10380080;28;20211;-81
2023/04/24 20:10:00;;;;;;;4.67;4.27;;;11.20;98.80;;;;;;10375829;28;20770;-81
2023/04/24 20:15:10;;;;;;;3.63;3.43;;;11.10;99.10;;;;;;10381729;28;20207;-81
2023/04/24 20:20:17;;;;;;;5.60;5.00;;;11.00;99.50;;;;;;10385545;28;20214;-81
2023/04/24 20:25:27;;;;;;;3.03;2.83;;;11.00;99.40;;;;;;10415261;28;20199;-81
2023/04/24 20:30:31;;;;;;;3.23;2.97;;;11.00;99.40;;;;;;10397585;28;20230;-81
2023/04/24 20:35:34;;;;;;;3.67;3.37;;;10.90;99.20;;;;;;10360224;28;20564;-81
2023/04/24 20:40:46;;;;;;;2.63;2.53;;;10.90;99.60;;;;;;10325879;28;20257;-81
2023/04/24 20:46:17;;;;;;;3.97;3.60;;;11.00;99.30;;;;;;10371591;28;20274;-82
2023/04/24 20:51:28;;;;;;;3.67;3.47;;;11.00;99.20;;;;;;10391291;28;20219;-82
2023/04/24 20:56:35;;;;;;;3.93;3.67;;;11.10;99.40;;;;;;10396273;28;20202;-81
2023/04/24 21:01:40;;;;;;;3.87;3.63;;;11.20;99.40;;;;;;10395367;28;20273;-81
2023/04/24 21:06:43;;;;;;;5.00;4.60;;;11.20;99.50;;;;;;10396284;28;20655;-81
2023/04/24 21:11:47;;;;;;;4.33;3.93;;;11.30;99.00;;;;;;10417606;28;20223;-82
2023/04/24 21:16:49;;;;;;;3.70;3.40;;;11.30;98.90;;;;;;10396187;28;20208;-82
2023/04/24 21:21:51;;;;;;;4.23;3.27;;;11.10;98.80;;;;;;10427123;22;20639;-78
2023/04/24 21:26:55;;;;;;;3.20;3.00;;;10.90;98.70;;;;;;10400698;28;20213;-79
2023/04/24 21:31:57;;;;;;;3.50;3.17;;;10.90;98.80;;;;;;10400948;28;20235;-79
2023/04/24 21:36:59;;;;;;;9.17;7.70;;;10.80;99.10;;;;;;10417968;28;20544;-80
2023/04/24 21:42:02;;;;;;;4.07;3.60;;;10.70;99.20;;;;;;10399182;28;20210;-79
2023/04/24 21:47:05;;;;;;;3.40;3.20;;;10.60;99.10;;;;;;10416202;28;20202;-80
2023/04/24 21:52:07;;;;;;;3.83;3.63;;;10.60;99.10;;;;;;10396112;28;20226;-79
2023/04/24 21:57:11;;;;;;;3.63;3.43;;;10.60;99.60;;;;;;10415178;28;20187;-80
2023/04/24 22:02:13;;;;;;;4.10;3.70;;;10.60;99.90;;;;;;10398058;28;20218;-79
2023/04/24 22:07:16;;;;;;;4.37;3.93;;;10.60;99.40;;;;;;10415642;28;20199;-79
2023/04/24 22:12:19;;;;;;;4.20;3.90;;;10.70;99.70;;;;;;10381262;28;20207;-79
2023/04/24 22:17:22;;;;;;;3.70;3.50;;;10.70;99.90;;;;;;10415560;28;20191;-78
2023/04/24 22:22:24;;;;;;;4.80;4.40;;;10.80;99.90;;;;;;10399106;28;20234;-79
2023/04/24 22:27:27;;;;;;;5.03;4.63;;;10.90;99.90;;;;;;10416250;28;20221;-79
2023/04/24 22:32:31;;;;;;;4.33;4.03;;;10.90;99.90;;;;;;10382466;28;20249;-79
2023/04/24 22:37:33;;;;;;;3.23;3.13;;;10.90;99.90;;;;;;10399094;28;20621;-79
2023/04/24 22:42:37;;;;;;;3.83;3.40;;;10.90;99.90;;;;;;10401313;28;20621;-79
2023/04/24 22:47:39;;;;;;;3.77;3.57;;;10.90;99.70;;;;;;10418604;28;20190;-80
2023/04/24 22:52:42;;;;;;;3.57;3.37;;;10.90;99.90;;;;;;10419176;28;20306;-80
2023/04/24 22:57:47;;;;;;;3.70;3.50;;;10.90;99.90;;;;;;10401871;28;20601;-80
2023/04/24 23:02:49;;;;;;;3.50;3.30;;;10.90;99.90;;;;;;10386392;28;20694;-80
2023/04/24 23:07:52;;;;;;;3.40;3.20;;;10.90;99.90;;;;;;10424583;28;20214;-80
2023/04/24 23:12:55;;;;;;;3.60;3.30;;;11.10;99.90;;;;;;10421434;28;20732;-80
2023/04/24 23:17:57;;;;;;;3.57;3.37;;;11.20;99.90;;;;;;10404717;28;20571;-79
2023/04/24 23:23:00;;;;;;;3.23;3.03;;;11.10;99.90;;;;;;10402991;28;20198;-80
2023/04/24 23:28:04;;;;;;;3.60;3.40;;;11.10;99.90;;;;;;10419104;28;20222;-80
2023/04/24 23:33:06;;;;;;;4.33;3.70;;;11.10;99.90;;;;;;10428869;28;20195;-80
2023/04/24 23:38:08;;;;;;;3.20;3.00;;;11.20;99.90;;;;;;10410433;28;20624;-80
2023/04/24 23:43:12;;;;;;;5.90;3.27;;;11.30;99.50;;;;;;10428269;28;20218;-80
2023/04/24 23:48:14;;;;;;;4.30;4.00;;;11.40;99.90;;;;;;10416865;28;20223;-80
2023/04/24 23:53:16;;;;;;;3.33;3.13;;;11.50;99.90;;;;;;10418104;28;20234;-81
2023/04/24 23:58:19;;;;;;;2.87;2.77;;;11.50;99.90;;;;;;10427211;28;20211;-80
